sensor_id;sensor_type;location;lat;lon;timestamp;P1;durP1;ratioP1;P2;durP2;ratioP2
16478;SDS011;8350;52.316;10.530;2023-05-07T00:00:00;22.85;;;20.42;;
16478;SDS011;8350;52.316;10.530;2023-05-07T00:02:28;23.00;;;18.45;;
16478;SDS011;8350;52.316;10.530;2023-05-07T00:04:57;24.23;;;19.63;;
16478;SDS011;8350;52.316;10.530;2023-05-07T00:07:24;24.77;;;20.40;;
16478;SDS011;8350;52.316;10.530;2023-05-07T00:09:51;22.27;;;19.83;;
16478;SDS011;8350;52.316;10.530;2023-05-07T00:12:18;22.70;;;19.92;;
16478;SDS011;8350;52.316;10.530;2023-05-07T00:14:45;23.55;;;20.67;;
16478;SDS011;8350;52.316;10.530;2023-05-07T00:17:12;25.42;;;21.02;;
16478;SDS011;8350;52.316;10.530;2023-05-07T00:19:39;25.23;;;20.27;;
16478;SDS011;8350;52.316;10.530;2023-05-07T00:22:09;23.80;;;18.90;;
16478;SDS011;8350;52.316;10.530;2023-05-07T00:24:36;23.95;;;20.33;;
16478;SDS011;8350;52.316;10.530;2023-05-07T00:27:03;23.35;;;19.48;;
16478;SDS011;8350;52.316;10.530;2023-05-07T00:29:30;22.23;;;19.10;;
16478;SDS011;8350;52.316;10.530;2023-05-07T00:31:57;21.83;;;18.50;;
16478;SDS011;8350;52.316;10.530;2023-05-07T00:34:24;21.48;;;19.20;;
16478;SDS011;8350;52.316;10.530;2023-05-07T00:36:51;20.88;;;17.60;;
16478;SDS011;8350;52.316;10.530;2023-05-07T00:39:19;20.50;;;18.27;;
16478;SDS011;8350;52.316;10.530;2023-05-07T00:41:46;19.08;;;17.08;;
16478;SDS011;8350;52.316;10.530;2023-05-07T00:44:13;19.38;;;16.58;;
16478;SDS011;8350;52.316;10.530;2023-05-07T00:46:40;18.45;;;16.48;;
16478;SDS011;8350;52.316;10.530;2023-05-07T00:49:10;19.15;;;15.40;;
16478;SDS011;8350;52.316;10.530;2023-05-07T00:51:37;18.60;;;15.27;;
16478;SDS011;8350;52.316;10.530;2023-05-07T00:54:04;17.02;;;13.95;;
16478;SDS011;8350;52.316;10.530;2023-05-07T00:56:33;16.45;;;14.75;;
16478;SDS011;8350;52.316;10.530;2023-05-07T00:59:01;13.82;;;12.50;;
16478;SDS011;8350;52.316;10.530;2023-05-07T01:01:28;13.50;;;12.20;;
16478;SDS011;8350;52.316;10.530;2023-05-07T01:03:55;14.15;;;12.63;;
16478;SDS011;8350;52.316;10.530;2023-05-07T01:06:22;13.52;;;12.13;;
16478;SDS011;8350;52.316;10.530;2023-05-07T01:08:52;13.63;;;12.10;;
16478;SDS011;8350;52.316;10.530;2023-05-07T01:11:21;14.73;;;11.15;;
16478;SDS011;8350;52.316;10.530;2023-05-07T01:13:50;14.40;;;11.70;;
16478;SDS011;8350;52.316;10.530;2023-05-07T01:16:18;13.80;;;11.43;;
16478;SDS011;8350;52.316;10.530;2023-05-07T01:18:45;14.57;;;11.65;;
16478;SDS011;8350;52.316;10.530;2023-05-07T01:21:14;12.93;;;11.52;;
16478;SDS011;8350;52.316;10.530;2023-05-07T01:23:45;12.23;;;11.02;;
16478;SDS011;8350;52.316;10.530;2023-05-07T01:26:15;11.27;;;9.95;;
16478;SDS011;8350;52.316;10.530;2023-05-07T01:28:44;13.02;;;11.20;;
16478;SDS011;8350;52.316;10.530;2023-05-07T01:31:11;11.43;;;10.23;;
16478;SDS011;8350;52.316;10.530;2023-05-07T01:33:40;14.02;;;10.68;;
16478;SDS011;8350;52.316;10.530;2023-05-07T01:36:10;11.50;;;9.50;;
16478;SDS011;8350;52.316;10.530;2023-05-07T01:38:39;11.95;;;10.63;;
16478;SDS011;8350;52.316;10.530;2023-05-07T01:41:08;10.88;;;9.77;;
16478;SDS011;8350;52.316;10.530;2023-05-07T01:43:36;12.40;;;11.20;;
16478;SDS011;8350;52.316;10.530;2023-05-07T01:46:03;13.00;;;11.60;;
16478;SDS011;8350;52.316;10.530;2023-05-07T01:48:30;11.70;;;10.50;;
16478;SDS011;8350;52.316;10.530;2023-05-07T01:50:58;11.27;;;10.18;;
16478;SDS011;8350;52.316;10.530;2023-05-07T01:53:27;10.15;;;9.18;;
16478;SDS011;8350;52.316;10.530;2023-05-07T01:55:54;11.50;;;9.63;;
16478;SDS011;8350;52.316;10.530;2023-05-07T01:58:22;10.75;;;9.75;;
16478;SDS011;8350;52.316;10.530;2023-05-07T02:00:49;10.35;;;9.35;;
16478;SDS011;8350;52.316;10.530;2023-05-07T02:03:16;11.02;;;9.93;;
16478;SDS011;8350;52.316;10.530;2023-05-07T02:05:44;11.60;;;10.50;;
16478;SDS011;8350;52.316;10.530;2023-05-07T02:08:11;12.35;;;11.15;;
16478;SDS011;8350;52.316;10.530;2023-05-07T02:10:37;11.93;;;10.77;;
16478;SDS011;8350;52.316;10.530;2023-05-07T02:13:05;11.15;;;9.95;;
16478;SDS011;8350;52.316;10.530;2023-05-07T02:15:33;11.90;;;10.80;;
16478;SDS011;8350;52.316;10.530;2023-05-07T02:18:00;10.35;;;9.32;;
16478;SDS011;8350;52.316;10.530;2023-05-07T02:20:29;11.85;;;10.57;;
16478;SDS011;8350;52.316;10.530;2023-05-07T02:22:59;12.45;;;11.25;;
16478;SDS011;8350;52.316;10.530;2023-05-07T02:25:27;11.60;;;10.40;;
16478;SDS011;8350;52.316;10.530;2023-05-07T02:27:55;10.10;;;9.10;;
16478;SDS011;8350;52.316;10.530;2023-05-07T02:30:24;11.45;;;9.77;;
16478;SDS011;8350;52.316;10.530;2023-05-07T02:32:53;10.90;;;9.90;;
16478;SDS011;8350;52.316;10.530;2023-05-07T02:35:20;9.82;;;8.82;;
16478;SDS011;8350;52.316;10.530;2023-05-07T02:37:47;9.82;;;8.82;;
16478;SDS011;8350;52.316;10.530;2023-05-07T02:40:14;10.27;;;9.35;;
16478;SDS011;8350;52.316;10.530;2023-05-07T02:42:41;9.90;;;9.00;;
16478;SDS011;8350;52.316;10.530;2023-05-07T02:45:08;10.43;;;9.43;;
16478;SDS011;8350;52.316;10.530;2023-05-07T02:47:36;10.43;;;9.32;;
16478;SDS011;8350;52.316;10.530;2023-05-07T02:50:05;10.45;;;9.35;;
16478;SDS011;8350;52.316;10.530;2023-05-07T02:52:33;10.93;;;9.63;;
16478;SDS011;8350;52.316;10.530;2023-05-07T02:55:00;12.23;;;10.30;;
16478;SDS011;8350;52.316;10.530;2023-05-07T02:57:27;10.52;;;9.43;;
16478;SDS011;8350;52.316;10.530;2023-05-07T02:59:54;11.43;;;10.32;;
16478;SDS011;8350;52.316;10.530;2023-05-07T03:02:21;11.25;;;10.15;;
16478;SDS011;8350;52.316;10.530;2023-05-07T03:04:48;10.15;;;9.15;;
16478;SDS011;8350;52.316;10.530;2023-05-07T03:07:17;10.77;;;9.52;;
16478;SDS011;8350;52.316;10.530;2023-05-07T03:09:43;11.15;;;10.02;;
16478;SDS011;8350;52.316;10.530;2023-05-07T03:12:10;10.68;;;9.68;;
16478;SDS011;8350;52.316;10.530;2023-05-07T03:14:37;10.52;;;9.07;;
16478;SDS011;8350;52.316;10.530;2023-05-07T03:17:04;10.48;;;9.38;;
16478;SDS011;8350;52.316;10.530;2023-05-07T03:19:31;11.15;;;10.10;;
16478;SDS011;8350;52.316;10.530;2023-05-07T03:21:58;12.15;;;10.75;;
16478;SDS011;8350;52.316;10.530;2023-05-07T03:24:26;12.15;;;10.85;;
16478;SDS011;8350;52.316;10.530;2023-05-07T03:26:53;12.52;;;11.23;;
16478;SDS011;8350;52.316;10.530;2023-05-07T03:29:20;14.18;;;11.30;;
16478;SDS011;8350;52.316;10.530;2023-05-07T03:31:47;12.52;;;11.23;;
16478;SDS011;8350;52.316;10.530;2023-05-07T03:34:14;14.35;;;12.25;;
16478;SDS011;8350;52.316;10.530;2023-05-07T03:36:47;12.48;;;11.07;;
16478;SDS011;8350;52.316;10.530;2023-05-07T03:39:14;13.23;;;11.32;;
16478;SDS011;8350;52.316;10.530;2023-05-07T03:41:42;13.13;;;11.93;;
16478;SDS011;8350;52.316;10.530;2023-05-07T03:44:10;12.98;;;11.68;;
16478;SDS011;8350;52.316;10.530;2023-05-07T03:46:37;12.35;;;11.20;;
16478;SDS011;8350;52.316;10.530;2023-05-07T03:49:04;11.43;;;10.35;;
16478;SDS011;8350;52.316;10.530;2023-05-07T03:51:31;10.88;;;9.88;;
16478;SDS011;8350;52.316;10.530;2023-05-07T03:53:58;9.82;;;8.93;;
16478;SDS011;8350;52.316;10.530;2023-05-07T03:56:25;8.88;;;8.07;;
16478;SDS011;8350;52.316;10.530;2023-05-07T03:58:54;9.27;;;8.48;;
16478;SDS011;8350;52.316;10.530;2023-05-07T04:01:21;8.73;;;7.93;;
16478;SDS011;8350;52.316;10.530;2023-05-07T04:03:48;9.57;;;8.68;;
16478;SDS011;8350;52.316;10.530;2023-05-07T04:06:15;9.35;;;8.35;;
16478;SDS011;8350;52.316;10.530;2023-05-07T04:08:42;8.95;;;8.15;;
16478;SDS011;8350;52.316;10.530;2023-05-07T04:11:09;10.63;;;9.52;;
16478;SDS011;8350;52.316;10.530;2023-05-07T04:13:36;10.60;;;9.60;;
16478;SDS011;8350;52.316;10.530;2023-05-07T04:16:06;10.18;;;9.18;;
16478;SDS011;8350;52.316;10.530;2023-05-07T04:18:32;9.75;;;8.93;;
16478;SDS011;8350;52.316;10.530;2023-05-07T04:20:59;12.05;;;10.82;;
16478;SDS011;8350;52.316;10.530;2023-05-07T04:23:28;10.25;;;9.25;;
16478;SDS011;8350;52.316;10.530;2023-05-07T04:25:55;9.93;;;9.10;;
16478;SDS011;8350;52.316;10.530;2023-05-07T04:28:22;11.25;;;9.68;;
16478;SDS011;8350;52.316;10.530;2023-05-07T04:30:49;10.82;;;9.82;;
16478;SDS011;8350;52.316;10.530;2023-05-07T04:33:17;11.35;;;10.25;;
16478;SDS011;8350;52.316;10.530;2023-05-07T04:35:44;11.02;;;10.00;;
16478;SDS011;8350;52.316;10.530;2023-05-07T04:38:11;11.70;;;10.55;;
16478;SDS011;8350;52.316;10.530;2023-05-07T04:40:38;11.35;;;10.25;;
16478;SDS011;8350;52.316;10.530;2023-05-07T04:43:06;11.57;;;10.50;;
16478;SDS011;8350;52.316;10.530;2023-05-07T04:45:34;12.32;;;11.13;;
16478;SDS011;8350;52.316;10.530;2023-05-07T04:48:01;11.55;;;10.48;;
16478;SDS011;8350;52.316;10.530;2023-05-07T04:50:29;11.07;;;10.07;;
16478;SDS011;8350;52.316;10.530;2023-05-07T04:52:56;12.10;;;10.68;;
16478;SDS011;8350;52.316;10.530;2023-05-07T04:55:23;11.40;;;10.30;;
16478;SDS011;8350;52.316;10.530;2023-05-07T04:57:51;11.75;;;10.65;;
16478;SDS011;8350;52.316;10.530;2023-05-07T05:00:19;10.15;;;9.25;;
16478;SDS011;8350;52.316;10.530;2023-05-07T05:02:46;11.98;;;10.77;;
16478;SDS011;8350;52.316;10.530;2023-05-07T05:05:13;12.00;;;10.90;;
16478;SDS011;8350;52.316;10.530;2023-05-07T05:07:43;11.35;;;10.25;;
16478;SDS011;8350;52.316;10.530;2023-05-07T05:10:10;10.30;;;9.38;;
16478;SDS011;8350;52.316;10.530;2023-05-07T05:12:37;10.20;;;9.30;;
16478;SDS011;8350;52.316;10.530;2023-05-07T05:15:05;9.80;;;8.90;;
16478;SDS011;8350;52.316;10.530;2023-05-07T05:17:33;9.98;;;8.98;;
16478;SDS011;8350;52.316;10.530;2023-05-07T05:20:01;10.00;;;9.10;;
16478;SDS011;8350;52.316;10.530;2023-05-07T05:22:28;10.52;;;9.52;;
16478;SDS011;8350;52.316;10.530;2023-05-07T05:24:57;10.23;;;9.30;;
16478;SDS011;8350;52.316;10.530;2023-05-07T05:27:25;10.45;;;9.48;;
16478;SDS011;8350;52.316;10.530;2023-05-07T05:29:52;11.00;;;10.00;;
16478;SDS011;8350;52.316;10.530;2023-05-07T05:32:19;9.85;;;8.95;;
16478;SDS011;8350;52.316;10.530;2023-05-07T05:34:46;11.52;;;10.43;;
16478;SDS011;8350;52.316;10.530;2023-05-07T05:37:13;10.60;;;9.60;;
16478;SDS011;8350;52.316;10.530;2023-05-07T05:39:40;11.25;;;10.25;;
16478;SDS011;8350;52.316;10.530;2023-05-07T05:42:09;11.02;;;10.02;;
16478;SDS011;8350;52.316;10.530;2023-05-07T05:44:36;11.80;;;10.70;;
16478;SDS011;8350;52.316;10.530;2023-05-07T05:47:03;13.55;;;12.27;;
16478;SDS011;8350;52.316;10.530;2023-05-07T05:49:30;12.15;;;11.00;;
16478;SDS011;8350;52.316;10.530;2023-05-07T05:51:57;11.15;;;10.10;;
16478;SDS011;8350;52.316;10.530;2023-05-07T05:54:24;11.65;;;10.65;;
16478;SDS011;8350;52.316;10.530;2023-05-07T05:56:51;12.25;;;11.23;;
16478;SDS011;8350;52.316;10.530;2023-05-07T05:59:20;12.75;;;11.55;;
16478;SDS011;8350;52.316;10.530;2023-05-07T06:01:49;11.77;;;10.77;;
16478;SDS011;8350;52.316;10.530;2023-05-07T06:04:16;11.75;;;10.57;;
16478;SDS011;8350;52.316;10.530;2023-05-07T06:06:44;12.30;;;11.10;;
16478;SDS011;8350;52.316;10.530;2023-05-07T06:09:10;11.38;;;10.38;;
16478;SDS011;8350;52.316;10.530;2023-05-07T06:11:37;12.50;;;11.38;;
16478;SDS011;8350;52.316;10.530;2023-05-07T06:14:06;13.13;;;11.93;;
16478;SDS011;8350;52.316;10.530;2023-05-07T06:16:34;13.48;;;12.20;;
16478;SDS011;8350;52.316;10.530;2023-05-07T06:19:02;12.43;;;11.30;;
16478;SDS011;8350;52.316;10.530;2023-05-07T06:21:29;11.85;;;10.75;;
16478;SDS011;8350;52.316;10.530;2023-05-07T06:23:56;11.85;;;10.85;;
16478;SDS011;8350;52.316;10.530;2023-05-07T06:26:23;11.68;;;10.68;;
16478;SDS011;8350;52.316;10.530;2023-05-07T06:28:52;11.35;;;10.35;;
16478;SDS011;8350;52.316;10.530;2023-05-07T06:31:19;11.73;;;10.63;;
16478;SDS011;8350;52.316;10.530;2023-05-07T06:33:48;10.77;;;9.77;;
16478;SDS011;8350;52.316;10.530;2023-05-07T06:36:15;10.60;;;9.68;;
16478;SDS011;8350;52.316;10.530;2023-05-07T06:38:42;10.73;;;9.75;;
16478;SDS011;8350;52.316;10.530;2023-05-07T06:41:09;11.13;;;10.13;;
16478;SDS011;8350;52.316;10.530;2023-05-07T06:43:36;11.05;;;10.05;;
16478;SDS011;8350;52.316;10.530;2023-05-07T06:46:03;10.23;;;9.32;;
16478;SDS011;8350;52.316;10.530;2023-05-07T06:48:30;10.38;;;9.38;;
16478;SDS011;8350;52.316;10.530;2023-05-07T06:50:58;11.02;;;9.93;;
16478;SDS011;8350;52.316;10.530;2023-05-07T06:53:25;11.70;;;10.50;;
16478;SDS011;8350;52.316;10.530;2023-05-07T06:55:53;10.38;;;9.48;;
16478;SDS011;8350;52.316;10.530;2023-05-07T06:58:20;10.88;;;9.88;;
16478;SDS011;8350;52.316;10.530;2023-05-07T07:00:49;10.65;;;9.65;;
16478;SDS011;8350;52.316;10.530;2023-05-07T07:03:16;10.43;;;9.50;;
16478;SDS011;8350;52.316;10.530;2023-05-07T07:05:43;10.75;;;9.75;;
16478;SDS011;8350;52.316;10.530;2023-05-07T07:08:12;9.82;;;8.93;;
16478;SDS011;8350;52.316;10.530;2023-05-07T07:10:39;10.50;;;9.60;;
16478;SDS011;8350;52.316;10.530;2023-05-07T07:13:06;11.00;;;10.00;;
16478;SDS011;8350;52.316;10.530;2023-05-07T07:15:33;11.93;;;10.82;;
16478;SDS011;8350;52.316;10.530;2023-05-07T07:18:00;11.10;;;10.10;;
16478;SDS011;8350;52.316;10.530;2023-05-07T07:20:29;11.10;;;10.07;;
16478;SDS011;8350;52.316;10.530;2023-05-07T07:22:56;11.20;;;10.20;;
16478;SDS011;8350;52.316;10.530;2023-05-07T07:25:24;11.23;;;10.20;;
16478;SDS011;8350;52.316;10.530;2023-05-07T07:27:52;10.27;;;9.38;;
16478;SDS011;8350;52.316;10.530;2023-05-07T07:30:19;10.43;;;9.52;;
16478;SDS011;8350;52.316;10.530;2023-05-07T07:32:46;10.05;;;9.07;;
16478;SDS011;8350;52.316;10.530;2023-05-07T07:35:12;9.85;;;8.85;;
16478;SDS011;8350;52.316;10.530;2023-05-07T07:37:39;10.82;;;9.73;;
16478;SDS011;8350;52.316;10.530;2023-05-07T07:40:07;10.63;;;9.63;;
16478;SDS011;8350;52.316;10.530;2023-05-07T07:42:36;10.40;;;9.50;;
16478;SDS011;8350;52.316;10.530;2023-05-07T07:45:03;9.35;;;8.38;;
16478;SDS011;8350;52.316;10.530;2023-05-07T07:47:31;9.50;;;8.50;;
16478;SDS011;8350;52.316;10.530;2023-05-07T07:49:57;9.05;;;8.25;;
16478;SDS011;8350;52.316;10.530;2023-05-07T07:52:24;9.00;;;8.20;;
16478;SDS011;8350;52.316;10.530;2023-05-07T07:54:51;9.10;;;7.47;;
16478;SDS011;8350;52.316;10.530;2023-05-07T07:57:18;8.82;;;7.82;;
16478;SDS011;8350;52.316;10.530;2023-05-07T07:59:46;9.98;;;8.95;;
16478;SDS011;8350;52.316;10.530;2023-05-07T08:02:13;8.85;;;8.02;;
16478;SDS011;8350;52.316;10.530;2023-05-07T08:04:40;9.10;;;8.30;;
16478;SDS011;8350;52.316;10.530;2023-05-07T08:07:08;8.88;;;8.05;;
16478;SDS011;8350;52.316;10.530;2023-05-07T08:09:35;9.85;;;8.95;;
16478;SDS011;8350;52.316;10.530;2023-05-07T08:12:02;10.00;;;9.13;;
16478;SDS011;8350;52.316;10.530;2023-05-07T08:14:30;9.30;;;8.50;;
16478;SDS011;8350;52.316;10.530;2023-05-07T08:17:01;11.10;;;10.20;;
16478;SDS011;8350;52.316;10.530;2023-05-07T08:19:28;12.32;;;11.32;;
16478;SDS011;8350;52.316;10.530;2023-05-07T08:21:55;11.30;;;10.40;;
16478;SDS011;8350;52.316;10.530;2023-05-07T08:24:22;12.05;;;10.95;;
16478;SDS011;8350;52.316;10.530;2023-05-07T08:26:49;12.43;;;11.23;;
16478;SDS011;8350;52.316;10.530;2023-05-07T08:29:16;12.70;;;11.50;;
16478;SDS011;8350;52.316;10.530;2023-05-07T08:31:55;11.10;;;10.18;;
16478;SDS011;8350;52.316;10.530;2023-05-07T08:34:28;12.05;;;11.02;;
16478;SDS011;8350;52.316;10.530;2023-05-07T08:36:55;12.02;;;10.90;;
16478;SDS011;8350;52.316;10.530;2023-05-07T08:39:22;11.88;;;10.77;;
16478;SDS011;8350;52.316;10.530;2023-05-07T08:41:55;10.63;;;9.63;;
16478;SDS011;8350;52.316;10.530;2023-05-07T08:44:23;10.52;;;9.65;;
16478;SDS011;8350;52.316;10.530;2023-05-07T08:46:53;10.80;;;9.80;;
16478;SDS011;8350;52.316;10.530;2023-05-07T08:49:24;10.25;;;9.40;;
16478;SDS011;8350;52.316;10.530;2023-05-07T08:51:51;11.18;;;10.25;;
16478;SDS011;8350;52.316;10.530;2023-05-07T08:54:18;10.73;;;9.82;;
16478;SDS011;8350;52.316;10.530;2023-05-07T08:56:47;13.35;;;12.15;;
16478;SDS011;8350;52.316;10.530;2023-05-07T08:59:14;11.23;;;10.23;;
16478;SDS011;8350;52.316;10.530;2023-05-07T09:01:41;11.65;;;10.45;;
16478;SDS011;8350;52.316;10.530;2023-05-07T09:04:08;10.02;;;9.13;;
16478;SDS011;8350;52.316;10.530;2023-05-07T09:06:36;10.23;;;9.43;;
16478;SDS011;8350;52.316;10.530;2023-05-07T09:09:07;10.20;;;9.20;;
16478;SDS011;8350;52.316;10.530;2023-05-07T09:11:34;9.32;;;8.55;;
16478;SDS011;8350;52.316;10.530;2023-05-07T09:14:03;9.40;;;8.50;;
16478;SDS011;8350;52.316;10.530;2023-05-07T09:16:30;8.95;;;8.23;;
16478;SDS011;8350;52.316;10.530;2023-05-07T09:19:01;8.88;;;8.15;;
16478;SDS011;8350;52.316;10.530;2023-05-07T09:21:28;9.27;;;8.48;;
16478;SDS011;8350;52.316;10.530;2023-05-07T09:24:11;10.48;;;9.50;;
16478;SDS011;8350;52.316;10.530;2023-05-07T09:26:38;9.32;;;8.50;;
16478;SDS011;8350;52.316;10.530;2023-05-07T09:29:05;9.52;;;8.73;;
16478;SDS011;8350;52.316;10.530;2023-05-07T09:31:35;9.65;;;8.82;;
16478;SDS011;8350;52.316;10.530;2023-05-07T09:34:06;10.20;;;9.25;;
16478;SDS011;8350;52.316;10.530;2023-05-07T09:36:35;9.55;;;8.75;;
16478;SDS011;8350;52.316;10.530;2023-05-07T09:39:07;8.95;;;8.07;;
16478;SDS011;8350;52.316;10.530;2023-05-07T09:41:42;9.00;;;8.18;;
16478;SDS011;8350;52.316;10.530;2023-05-07T09:44:10;8.65;;;7.80;;
16478;SDS011;8350;52.316;10.530;2023-05-07T09:46:41;8.90;;;8.20;;
16478;SDS011;8350;52.316;10.530;2023-05-07T09:49:10;9.02;;;8.25;;
16478;SDS011;8350;52.316;10.530;2023-05-07T09:51:43;8.70;;;7.90;;
16478;SDS011;8350;52.316;10.530;2023-05-07T09:54:16;8.30;;;7.70;;
16478;SDS011;8350;52.316;10.530;2023-05-07T09:56:43;7.72;;;6.97;;
16478;SDS011;8350;52.316;10.530;2023-05-07T09:59:15;7.82;;;7.13;;
16478;SDS011;8350;52.316;10.530;2023-05-07T10:01:43;7.75;;;7.05;;
16478;SDS011;8350;52.316;10.530;2023-05-07T10:04:11;6.97;;;6.38;;
16478;SDS011;8350;52.316;10.530;2023-05-07T10:06:38;7.40;;;6.80;;
16478;SDS011;8350;52.316;10.530;2023-05-07T10:09:09;7.60;;;6.90;;
16478;SDS011;8350;52.316;10.530;2023-05-07T10:11:39;7.63;;;6.90;;
16478;SDS011;8350;52.316;10.530;2023-05-07T10:14:07;7.35;;;6.72;;
16478;SDS011;8350;52.316;10.530;2023-05-07T10:16:36;7.50;;;6.80;;
16478;SDS011;8350;52.316;10.530;2023-05-07T10:19:03;7.05;;;6.45;;
16478;SDS011;8350;52.316;10.530;2023-05-07T10:21:35;7.40;;;6.70;;
16478;SDS011;8350;52.316;10.530;2023-05-07T10:27:00;7.70;;;7.00;;
16478;SDS011;8350;52.316;10.530;2023-05-07T10:29:33;7.00;;;6.43;;
16478;SDS011;8350;52.316;10.530;2023-05-07T10:32:19;7.65;;;7.05;;
16478;SDS011;8350;52.316;10.530;2023-05-07T10:34:56;7.90;;;7.20;;
16478;SDS011;8350;52.316;10.530;2023-05-07T10:37:28;6.97;;;6.32;;
16478;SDS011;8350;52.316;10.530;2023-05-07T10:39:56;6.95;;;6.38;;
16478;SDS011;8350;52.316;10.530;2023-05-07T10:42:25;6.13;;;5.63;;
16478;SDS011;8350;52.316;10.530;2023-05-07T10:44:52;6.03;;;5.53;;
16478;SDS011;8350;52.316;10.530;2023-05-07T10:47:19;6.05;;;5.53;;
16478;SDS011;8350;52.316;10.530;2023-05-07T10:52:46;5.57;;;5.18;;
16478;SDS011;8350;52.316;10.530;2023-05-07T11:02:14;5.00;;;4.38;;
16478;SDS011;8350;52.316;10.530;2023-05-07T11:04:41;4.65;;;4.32;;
16478;SDS011;8350;52.316;10.530;2023-05-07T11:10:02;5.03;;;4.57;;
16478;SDS011;8350;52.316;10.530;2023-05-07T11:12:50;5.40;;;4.90;;
16478;SDS011;8350;52.316;10.530;2023-05-07T11:15:41;5.30;;;4.80;;
16478;SDS011;8350;52.316;10.530;2023-05-07T11:18:09;5.63;;;5.13;;
16478;SDS011;8350;52.316;10.530;2023-05-07T11:26:41;5.57;;;5.07;;
16478;SDS011;8350;52.316;10.530;2023-05-07T11:29:13;5.53;;;5.13;;
16478;SDS011;8350;52.316;10.530;2023-05-07T11:31:43;5.90;;;5.40;;
16478;SDS011;8350;52.316;10.530;2023-05-07T11:34:10;5.43;;;5.03;;
16478;SDS011;8350;52.316;10.530;2023-05-07T11:36:41;5.90;;;5.30;;
16478;SDS011;8350;52.316;10.530;2023-05-07T11:39:26;6.40;;;5.80;;
16478;SDS011;8350;52.316;10.530;2023-05-07T11:41:54;6.18;;;5.38;;
16478;SDS011;8350;52.316;10.530;2023-05-07T11:44:24;5.70;;;5.20;;
16478;SDS011;8350;52.316;10.530;2023-05-07T11:46:53;6.57;;;6.03;;
16478;SDS011;8350;52.316;10.530;2023-05-07T11:49:21;7.32;;;6.65;;
16478;SDS011;8350;52.316;10.530;2023-05-07T11:51:51;7.07;;;6.47;;
16478;SDS011;8350;52.316;10.530;2023-05-07T11:54:20;9.02;;;8.10;;
16478;SDS011;8350;52.316;10.530;2023-05-07T11:56:48;8.18;;;7.53;;
16478;SDS011;8350;52.316;10.530;2023-05-07T12:02:21;8.20;;;6.95;;
16478;SDS011;8350;52.316;10.530;2023-05-07T12:04:50;6.80;;;6.18;;
16478;SDS011;8350;52.316;10.530;2023-05-07T12:07:17;6.72;;;6.00;;
16478;SDS011;8350;52.316;10.530;2023-05-07T12:09:44;7.20;;;6.60;;
16478;SDS011;8350;52.316;10.530;2023-05-07T12:12:12;7.20;;;6.50;;
16478;SDS011;8350;52.316;10.530;2023-05-07T12:14:43;7.05;;;6.35;;
16478;SDS011;8350;52.316;10.530;2023-05-07T12:17:11;7.57;;;6.88;;
16478;SDS011;8350;52.316;10.530;2023-05-07T12:19:42;7.68;;;6.88;;
16478;SDS011;8350;52.316;10.530;2023-05-07T12:22:10;7.47;;;6.78;;
16478;SDS011;8350;52.316;10.530;2023-05-07T12:24:44;7.28;;;6.68;;
16478;SDS011;8350;52.316;10.530;2023-05-07T12:27:14;7.30;;;6.68;;
16478;SDS011;8350;52.316;10.530;2023-05-07T12:29:43;6.97;;;6.32;;
16478;SDS011;8350;52.316;10.530;2023-05-07T12:32:12;6.68;;;6.07;;
16478;SDS011;8350;52.316;10.530;2023-05-07T12:34:42;6.57;;;6.07;;
16478;SDS011;8350;52.316;10.530;2023-05-07T12:37:09;7.32;;;6.72;;
16478;SDS011;8350;52.316;10.530;2023-05-07T12:39:37;6.53;;;5.93;;
16478;SDS011;8350;52.316;10.530;2023-05-07T12:42:04;6.35;;;5.72;;
16478;SDS011;8350;52.316;10.530;2023-05-07T12:44:32;8.40;;;6.18;;
16478;SDS011;8350;52.316;10.530;2023-05-07T12:47:01;6.18;;;5.50;;
16478;SDS011;8350;52.316;10.530;2023-05-07T12:49:28;6.20;;;5.60;;
16478;SDS011;8350;52.316;10.530;2023-05-07T12:51:57;6.00;;;5.50;;
16478;SDS011;8350;52.316;10.530;2023-05-07T12:54:28;5.93;;;5.43;;
16478;SDS011;8350;52.316;10.530;2023-05-07T12:57:02;6.00;;;5.50;;
16478;SDS011;8350;52.316;10.530;2023-05-07T12:59:31;5.88;;;5.38;;
16478;SDS011;8350;52.316;10.530;2023-05-07T13:01:58;6.22;;;5.65;;
16478;SDS011;8350;52.316;10.530;2023-05-07T13:04:25;6.63;;;5.63;;
16478;SDS011;8350;52.316;10.530;2023-05-07T13:06:53;6.10;;;5.15;;
16478;SDS011;8350;52.316;10.530;2023-05-07T13:09:21;5.57;;;5.13;;
16478;SDS011;8350;52.316;10.530;2023-05-07T13:11:48;5.18;;;4.68;;
16478;SDS011;8350;52.316;10.530;2023-05-07T13:14:15;6.57;;;5.53;;
16478;SDS011;8350;52.316;10.530;2023-05-07T13:16:42;5.18;;;4.68;;
16478;SDS011;8350;52.316;10.530;2023-05-07T13:19:09;5.18;;;4.75;;
16478;SDS011;8350;52.316;10.530;2023-05-07T13:21:36;4.82;;;4.43;;
16478;SDS011;8350;52.316;10.530;2023-05-07T13:24:04;5.68;;;4.95;;
16478;SDS011;8350;52.316;10.530;2023-05-07T13:26:32;4.60;;;4.20;;
16478;SDS011;8350;52.316;10.530;2023-05-07T13:28:59;5.70;;;5.20;;
16478;SDS011;8350;52.316;10.530;2023-05-07T13:31:26;5.82;;;5.10;;
16478;SDS011;8350;52.316;10.530;2023-05-07T13:33:53;4.80;;;4.40;;
16478;SDS011;8350;52.316;10.530;2023-05-07T13:36:21;5.38;;;4.60;;
16478;SDS011;8350;52.316;10.530;2023-05-07T13:38:48;4.40;;;4.10;;
16478;SDS011;8350;52.316;10.530;2023-05-07T13:41:15;5.10;;;4.60;;
16478;SDS011;8350;52.316;10.530;2023-05-07T13:43:44;4.55;;;4.15;;
16478;SDS011;8350;52.316;10.530;2023-05-07T13:46:13;5.18;;;4.75;;
16478;SDS011;8350;52.316;10.530;2023-05-07T13:48:40;5.30;;;4.80;;
16478;SDS011;8350;52.316;10.530;2023-05-07T13:51:07;4.28;;;3.97;;
16478;SDS011;8350;52.316;10.530;2023-05-07T13:53:34;4.38;;;3.97;;
16478;SDS011;8350;52.316;10.530;2023-05-07T13:56:01;5.18;;;4.38;;
16478;SDS011;8350;52.316;10.530;2023-05-07T13:58:29;5.32;;;4.80;;
16478;SDS011;8350;52.316;10.530;2023-05-07T14:00:58;5.80;;;5.10;;
16478;SDS011;8350;52.316;10.530;2023-05-07T14:03:25;4.82;;;4.43;;
16478;SDS011;8350;52.316;10.530;2023-05-07T14:05:52;5.43;;;4.78;;
16478;SDS011;8350;52.316;10.530;2023-05-07T14:08:19;6.40;;;5.80;;
16478;SDS011;8350;52.316;10.530;2023-05-07T14:10:46;6.03;;;5.40;;
16478;SDS011;8350;52.316;10.530;2023-05-07T14:13:13;6.00;;;5.40;;
16478;SDS011;8350;52.316;10.530;2023-05-07T14:15:40;6.30;;;5.53;;
16478;SDS011;8350;52.316;10.530;2023-05-07T14:18:15;5.53;;;5.10;;
16478;SDS011;8350;52.316;10.530;2023-05-07T14:20:41;6.45;;;5.95;;
16478;SDS011;8350;52.316;10.530;2023-05-07T14:23:11;6.68;;;6.07;;
16478;SDS011;8350;52.316;10.530;2023-05-07T14:25:38;6.70;;;6.15;;
16478;SDS011;8350;52.316;10.530;2023-05-07T14:28:05;7.60;;;6.32;;
16478;SDS011;8350;52.316;10.530;2023-05-07T14:30:32;6.93;;;6.32;;
16478;SDS011;8350;52.316;10.530;2023-05-07T14:33:00;6.50;;;6.00;;
16478;SDS011;8350;52.316;10.530;2023-05-07T14:35:29;6.53;;;6.03;;
16478;SDS011;8350;52.316;10.530;2023-05-07T14:37:56;6.88;;;6.38;;
16478;SDS011;8350;52.316;10.530;2023-05-07T14:40:23;6.03;;;5.53;;
16478;SDS011;8350;52.316;10.530;2023-05-07T14:42:50;7.15;;;5.82;;
16478;SDS011;8350;52.316;10.530;2023-05-07T14:45:17;6.68;;;6.10;;
16478;SDS011;8350;52.316;10.530;2023-05-07T14:47:44;5.93;;;5.43;;
16478;SDS011;8350;52.316;10.530;2023-05-07T14:50:11;6.47;;;5.88;;
16478;SDS011;8350;52.316;10.530;2023-05-07T14:52:39;6.30;;;5.60;;
16478;SDS011;8350;52.316;10.530;2023-05-07T14:55:07;5.90;;;4.90;;
16478;SDS011;8350;52.316;10.530;2023-05-07T14:57:34;5.72;;;5.22;;
16478;SDS011;8350;52.316;10.530;2023-05-07T15:00:01;6.70;;;6.10;;
16478;SDS011;8350;52.316;10.530;2023-05-07T15:02:30;6.57;;;5.97;;
16478;SDS011;8350;52.316;10.530;2023-05-07T15:04:57;6.97;;;6.30;;